sensor_id;sensor_type;location;lat;lon;timestamp;temperature;humidity
49821;DHT22;36893;52.520;13.450;2022-09-09T00:08:55;25.40;65.20
49821;DHT22;36893;52.520;13.450;2022-09-09T00:19:21;25.30;65.30
49821;DHT22;36893;52.520;13.450;2022-09-09T00:29:43;25.30;65.30
49821;DHT22;36893;52.520;13.450;2022-09-09T00:39:47;25.30;65.30
49821;DHT22;36893;52.520;13.450;2022-09-09T00:50:00;25.40;65.40
49821;DHT22;36893;52.520;13.450;2022-09-09T01:10:46;25.30;65.30
49821;DHT22;36893;52.520;13.450;2022-09-09T01:21:04;25.30;65.40
49821;DHT22;36893;52.520;13.450;2022-09-09T01:31:14;25.30;65.40
49821;DHT22;36893;52.520;13.450;2022-09-09T01:41:17;25.30;65.40
49821;DHT22;36893;52.520;13.450;2022-09-09T01:51:18;25.30;65.40
49821;DHT22;36893;52.520;13.450;2022-09-09T02:01:38;25.30;65.40
49821;DHT22;36893;52.520;13.450;2022-09-09T02:11:42;25.30;65.40
49821;DHT22;36893;52.520;13.450;2022-09-09T02:21:45;25.30;65.30
49821;DHT22;36893;52.520;13.450;2022-09-09T02:31:47;25.30;65.40
49821;DHT22;36893;52.520;13.450;2022-09-09T02:41:50;25.30;65.40
49821;DHT22;36893;52.520;13.450;2022-09-09T02:52:04;25.30;65.40
49821;DHT22;36893;52.520;13.450;2022-09-09T03:02:06;25.30;65.50
49821;DHT22;36893;52.520;13.450;2022-09-09T03:12:07;25.30;65.50
49821;DHT22;36893;52.520;13.450;2022-09-09T03:22:10;25.30;65.50
49821;DHT22;36893;52.520;13.450;2022-09-09T03:32:11;25.30;65.50
49821;DHT22;36893;52.520;13.450;2022-09-09T03:42:14;25.30;65.50
49821;DHT22;36893;52.520;13.450;2022-09-09T03:52:18;25.30;65.60
49821;DHT22;36893;52.520;13.450;2022-09-09T04:02:20;25.30;65.50
49821;DHT22;36893;52.520;13.450;2022-09-09T04:12:21;25.30;65.60
49821;DHT22;36893;52.520;13.450;2022-09-09T04:22:22;25.30;65.50
49821;DHT22;36893;52.520;13.450;2022-09-09T04:32:23;25.30;65.50
49821;DHT22;36893;52.520;13.450;2022-09-09T04:42:26;25.30;65.60
49821;DHT22;36893;52.520;13.450;2022-09-09T04:52:28;25.30;65.60
49821;DHT22;36893;52.520;13.450;2022-09-09T05:02:28;25.30;66.40
49821;DHT22;36893;52.520;13.450;2022-09-09T05:12:31;25.30;65.60
49821;DHT22;36893;52.520;13.450;2022-09-09T05:22:32;25.30;65.60
49821;DHT22;36893;52.520;13.450;2022-09-09T05:32:32;25.30;65.80
49821;DHT22;36893;52.520;13.450;2022-09-09T05:42:34;25.30;65.80
49821;DHT22;36893;52.520;13.450;2022-09-09T05:52:34;25.30;65.90
49821;DHT22;36893;52.520;13.450;2022-09-09T06:02:35;25.20;66.00
49821;DHT22;36893;52.520;13.450;2022-09-09T06:12:38;25.20;66.60
49821;DHT22;36893;52.520;13.450;2022-09-09T06:22:40;25.20;65.80
49821;DHT22;36893;52.520;13.450;2022-09-09T06:32:41;25.30;66.00
49821;DHT22;36893;52.520;13.450;2022-09-09T06:42:42;25.30;65.90
49821;DHT22;36893;52.520;13.450;2022-09-09T06:52:46;25.30;66.00
49821;DHT22;36893;52.520;13.450;2022-09-09T07:02:47;25.30;66.00
49821;DHT22;36893;52.520;13.450;2022-09-09T07:12:52;25.30;66.00
49821;DHT22;36893;52.520;13.450;2022-09-09T07:22:55;25.30;66.00
49821;DHT22;36893;52.520;13.450;2022-09-09T07:32:56;25.30;65.90
49821;DHT22;36893;52.520;13.450;2022-09-09T07:42:57;25.30;65.90
49821;DHT22;36893;52.520;13.450;2022-09-09T07:52:58;25.30;65.90
49821;DHT22;36893;52.520;13.450;2022-09-09T08:02:59;25.30;65.80
49821;DHT22;36893;52.520;13.450;2022-09-09T08:13:01;25.30;65.80
49821;DHT22;36893;52.520;13.450;2022-09-09T08:23:02;25.40;65.80
49821;DHT22;36893;52.520;13.450;2022-09-09T08:33:02;25.40;65.90
49821;DHT22;36893;52.520;13.450;2022-09-09T08:43:04;25.40;65.80
49821;DHT22;36893;52.520;13.450;2022-09-09T08:53:17;25.40;65.90
49821;DHT22;36893;52.520;13.450;2022-09-09T09:14:25;25.40;66.00
49821;DHT22;36893;52.520;13.450;2022-09-09T09:24:54;25.40;65.90
49821;DHT22;36893;52.520;13.450;2022-09-09T09:34:57;25.40;66.00
49821;DHT22;36893;52.520;13.450;2022-09-09T09:45:20;25.50;65.90
49821;DHT22;36893;52.520;13.450;2022-09-09T09:55:30;25.50;65.90
49821;DHT22;36893;52.520;13.450;2022-09-09T10:05:35;25.60;66.00
49821;DHT22;36893;52.520;13.450;2022-09-09T10:15:48;25.60;66.00
49821;DHT22;36893;52.520;13.450;2022-09-09T10:26:07;25.60;66.00
49821;DHT22;36893;52.520;13.450;2022-09-09T10:36:25;25.70;66.10
49821;DHT22;36893;52.520;13.450;2022-09-09T10:56:34;25.70;66.10
49821;DHT22;36893;52.520;13.450;2022-09-09T11:06:41;25.70;66.20
49821;DHT22;36893;52.520;13.450;2022-09-09T11:27:24;25.80;66.40
49821;DHT22;36893;52.520;13.450;2022-09-09T11:38:11;25.80;66.50
49821;DHT22;36893;52.520;13.450;2022-09-09T11:48:38;25.80;66.50
49821;DHT22;36893;52.520;13.450;2022-09-09T11:58:58;25.80;66.60
49821;DHT22;36893;52.520;13.450;2022-09-09T12:09:09;25.80;66.60
49821;DHT22;36893;52.520;13.450;2022-09-09T12:19:22;25.80;66.60
49821;DHT22;36893;52.520;13.450;2022-09-09T12:40:37;26.00;66.40
49821;DHT22;36893;52.520;13.450;2022-09-09T12:50:30;26.00;66.10
49821;DHT22;36893;52.520;13.450;2022-09-09T13:00:33;26.00;66.00
49821;DHT22;36893;52.520;13.450;2022-09-09T13:20:57;26.10;65.80
49821;DHT22;36893;52.520;13.450;2022-09-09T13:31:04;26.00;65.80
49821;DHT22;36893;52.520;13.450;2022-09-09T13:41:09;26.00;66.00
49821;DHT22;36893;52.520;13.450;2022-09-09T13:51:32;26.00;66.10
49821;DHT22;36893;52.520;13.450;2022-09-09T14:01:37;25.90;66.10
49821;DHT22;36893;52.520;13.450;2022-09-09T14:11:38;25.90;66.10
49821;DHT22;36893;52.520;13.450;2022-09-09T14:21:39;25.90;66.20
49821;DHT22;36893;52.520;13.450;2022-09-09T14:31:39;26.00;66.40
49821;DHT22;36893;52.520;13.450;2022-09-09T14:41:40;26.00;66.30
49821;DHT22;36893;52.520;13.450;2022-09-09T14:51:41;25.90;66.20
49821;DHT22;36893;52.520;13.450;2022-09-09T15:01:41;26.00;66.30
49821;DHT22;36893;52.520;13.450;2022-09-09T15:11:42;26.00;66.40
49821;DHT22;36893;52.520;13.450;2022-09-09T15:21:43;26.00;66.40
49821;DHT22;36893;52.520;13.450;2022-09-09T15:31:45;26.00;66.40
49821;DHT22;36893;52.520;13.450;2022-09-09T15:41:48;26.00;66.40
49821;DHT22;36893;52.520;13.450;2022-09-09T15:51:54;25.90;66.40
49821;DHT22;36893;52.520;13.450;2022-09-09T16:01:58;26.00;66.40
49821;DHT22;36893;52.520;13.450;2022-09-09T16:12:01;26.00;66.40
49821;DHT22;36893;52.520;13.450;2022-09-09T16:22:06;26.00;66.50
49821;DHT22;36893;52.520;13.450;2022-09-09T16:32:07;26.00;66.60
49821;DHT22;36893;52.520;13.450;2022-09-09T16:42:08;25.90;66.60
49821;DHT22;36893;52.520;13.450;2022-09-09T16:52:09;26.00;66.70
49821;DHT22;36893;52.520;13.450;2022-09-09T17:02:10;26.00;66.80
49821;DHT22;36893;52.520;13.450;2022-09-09T17:12:11;25.90;66.90
49821;DHT22;36893;52.520;13.450;2022-09-09T17:22:12;26.00;66.90
49821;DHT22;36893;52.520;13.450;2022-09-09T17:32:13;26.00;66.90
49821;DHT22;36893;52.520;13.450;2022-09-09T17:42:14;26.00;66.90
49821;DHT22;36893;52.520;13.450;2022-09-09T17:52:15;26.00;66.90
49821;DHT22;36893;52.520;13.450;2022-09-09T18:02:16;26.00;66.90
49821;DHT22;36893;52.520;13.450;2022-09-09T18:12:16;26.00;67.00
49821;DHT22;36893;52.520;13.450;2022-09-09T18:22:17;26.00;67.00
49821;DHT22;36893;52.520;13.450;2022-09-09T18:32:19;26.00;66.90
49821;DHT22;36893;52.520;13.450;2022-09-09T18:42:20;26.00;66.90
49821;DHT22;36893;52.520;13.450;2022-09-09T18:52:21;26.00;67.00
49821;DHT22;36893;52.520;13.450;2022-09-09T19:02:21;25.90;66.80
49821;DHT22;36893;52.520;13.450;2022-09-09T19:12:22;25.90;66.80
49821;DHT22;36893;52.520;13.450;2022-09-09T19:22:23;25.90;66.90
49821;DHT22;36893;52.520;13.450;2022-09-09T19:32:25;25.90;66.90
49821;DHT22;36893;52.520;13.450;2022-09-09T19:42:25;25.90;66.80
49821;DHT22;36893;52.520;13.450;2022-09-09T19:52:26;25.90;66.80
49821;DHT22;36893;52.520;13.450;2022-09-09T20:02:27;25.90;66.80
49821;DHT22;36893;52.520;13.450;2022-09-09T20:12:28;25.90;66.80
49821;DHT22;36893;52.520;13.450;2022-09-09T20:22:28;25.90;66.80
49821;DHT22;36893;52.520;13.450;2022-09-09T20:32:29;25.90;66.70
49821;DHT22;36893;52.520;13.450;2022-09-09T20:42:30;25.90;66.70
49821;DHT22;36893;52.520;13.450;2022-09-09T20:52:30;25.90;66.80
49821;DHT22;36893;52.520;13.450;2022-09-09T21:02:32;25.90;66.80
49821;DHT22;36893;52.520;13.450;2022-09-09T21:12:32;25.90;66.70
49821;DHT22;36893;52.520;13.450;2022-09-09T21:22:33;25.80;66.60
49821;DHT22;36893;52.520;13.450;2022-09-09T21:32:34;25.90;66.70
49821;DHT22;36893;52.520;13.450;2022-09-09T21:42:34;25.90;66.70
49821;DHT22;36893;52.520;13.450;2022-09-09T21:52:35;25.90;66.90
49821;DHT22;36893;52.520;13.450;2022-09-09T22:02:36;25.90;66.90
49821;DHT22;36893;52.520;13.450;2022-09-09T22:12:37;25.80;66.60
49821;DHT22;36893;52.520;13.450;2022-09-09T22:22:38;25.80;66.50
49821;DHT22;36893;52.520;13.450;2022-09-09T22:32:39;25.60;66.30
49821;DHT22;36893;52.520;13.450;2022-09-09T22:42:40;25.40;66.40
49821;DHT22;36893;52.520;13.450;2022-09-09T22:52:41;25.30;66.40
49821;DHT22;36893;52.520;13.450;2022-09-09T23:02:41;25.10;66.60
49821;DHT22;36893;52.520;13.450;2022-09-09T23:12:42;25.00;66.80
49821;DHT22;36893;52.520;13.450;2022-09-09T23:22:44;24.90;66.70
49821;DHT22;36893;52.520;13.450;2022-09-09T23:32:48;24.80;66.80
49821;DHT22;36893;52.520;13.450;2022-09-09T23:42:48;24.80;66.90
49821;DHT22;36893;52.520;13.450;2022-09-09T23:52:49;24.70;67.10
